createdAt,value
2022-11-27T00:01:30.671Z,11.02
2022-11-27T00:03:57.894Z,11.48
2022-11-27T00:06:27.610Z,10.52
2022-11-27T00:09:01.521Z,11.52
2022-11-27T00:11:31.029Z,10.38
2022-11-27T00:13:58.996Z,12.38
2022-11-27T00:16:28.359Z,11.63
2022-11-27T00:18:55.456Z,11.77
2022-11-27T00:21:26.789Z,11.98
2022-11-27T00:23:55.954Z,12.13
2022-11-27T00:26:24.350Z,10.35
2022-11-27T00:28:52.168Z,12.63
2022-11-27T00:31:29.413Z,11.25
2022-11-27T00:34:00.209Z,11.43
2022-11-27T00:36:29.799Z,10.65
2022-11-27T00:38:57.168Z,10.52
2022-11-27T00:41:28.759Z,11.15
2022-11-27T00:43:56.744Z,10.82
2022-11-27T00:46:29.381Z,12.40
2022-11-27T00:48:58.243Z,10.90
2022-11-27T00:51:26.691Z,10.05
2022-11-27T00:53:54.400Z,11.50
2022-11-27T00:56:30.997Z,9.77
2022-11-27T00:58:58.353Z,9.10
2022-11-27T01:01:33.205Z,10.68
2022-11-27T01:04:02.690Z,10.68
2022-11-27T01:06:30.820Z,11.25
2022-11-27T01:08:58.905Z,10.98
2022-11-27T01:11:32.285Z,9.93
2022-11-27T01:14:07.312Z,10.20
2022-11-27T01:16:35.049Z,9.80
2022-11-27T01:19:03.481Z,8.80
2022-11-27T01:21:34.605Z,9.38
2022-11-27T01:24:05.213Z,9.25
2022-11-27T01:26:32.462Z,9.93
2022-11-27T01:29:00.132Z,10.05
2022-11-27T01:31:31.305Z,9.70
2022-11-27T01:34:05.842Z,10.57
2022-11-27T01:36:34.605Z,10.10
2022-11-27T01:39:02.277Z,9.70
2022-11-27T01:41:36.885Z,9.55
2022-11-27T01:44:23.741Z,8.55
2022-11-27T01:46:58.377Z,9.63
2022-11-27T01:49:36.799Z,9.88
2022-11-27T01:52:24.712Z,9.10
2022-11-27T01:55:00.066Z,8.88
2022-11-27T01:57:42.966Z,8.80
2022-11-27T02:00:14.968Z,8.70
2022-11-27T02:02:44.097Z,8.60
2022-11-27T02:05:17.668Z,9.38
2022-11-27T02:07:45.999Z,8.27
2022-11-27T02:10:13.816Z,8.75
2022-11-27T02:13:03.918Z,8.68
2022-11-27T02:15:54.950Z,8.40
2022-11-27T02:18:33.517Z,9.70
2022-11-27T02:21:22.436Z,7.50
2022-11-27T02:24:17.287Z,7.40
2022-11-27T02:27:16.390Z,9.15
2022-11-27T02:29:49.944Z,8.13
2022-11-27T02:32:47.817Z,8.25
2022-11-27T02:35:25.712Z,8.68
2022-11-27T02:38:01.401Z,7.10
2022-11-27T02:40:44.079Z,8.13
2022-11-27T02:43:22.294Z,8.20
2022-11-27T02:45:52.045Z,7.95
2022-11-27T02:48:24.564Z,7.90
2022-11-27T02:50:54.169Z,7.15
2022-11-27T02:53:28.053Z,8.38
2022-11-27T02:55:58.202Z,7.57
2022-11-27T02:58:29.551Z,8.25
2022-11-27T03:00:57.918Z,8.60
2022-11-27T03:03:37.304Z,8.43
2022-11-27T03:06:12.570Z,8.65
